Terminal Aerodrome Forecast
Issued by NWS

Home | Current Version | Previous Version | Text Only | Print | Product List | Glossary On
Versions: 1 2 3 4 5 6 7 8 9 10 11 12 13 14 15 16 17 18 19 20 21 22 23 24 25 26 27 28 29
384
FTUS44 KFWD 301508 AAA
TAFAFW
TAF AMD
KAFW 301508Z 3015/0112 27022G32KT P6SM FEW035 SCT150
     FM301800 27027G37KT P6SM BKN050
     FM302100 28027G37KT P6SM BKN070
     FM010100 29015KT P6SM SKC
     FM010600 26008KT P6SM SKC=

USA.gov is the U.S. government's official web portal to all federal, state and local government web resources and services.